sensor_id;sensor_type;location;lat;lon;timestamp;temperature;humidity
23347;DHT22;36852;45.466;11.066;2023-05-21T00:02:24;20.10;99.90
23347;DHT22;36852;45.466;11.066;2023-05-21T00:04:54;20.10;99.90
23347;DHT22;36852;45.466;11.066;2023-05-21T00:07:23;20.20;99.90
23347;DHT22;36852;45.466;11.066;2023-05-21T00:09:52;20.20;99.90
23347;DHT22;36852;45.466;11.066;2023-05-21T00:12:19;20.20;99.90
23347;DHT22;36852;45.466;11.066;2023-05-21T00:14:48;20.20;99.90
23347;DHT22;36852;45.466;11.066;2023-05-21T00:17:15;20.20;99.90
23347;DHT22;36852;45.466;11.066;2023-05-21T00:19:44;20.20;99.90
23347;DHT22;36852;45.466;11.066;2023-05-21T00:22:13;20.20;99.90
23347;DHT22;36852;45.466;11.066;2023-05-21T00:24:41;20.20;99.90
23347;DHT22;36852;45.466;11.066;2023-05-21T00:27:08;20.20;99.90
23347;DHT22;36852;45.466;11.066;2023-05-21T00:29:36;20.20;99.90
23347;DHT22;36852;45.466;11.066;2023-05-21T00:32:04;20.20;99.90
23347;DHT22;36852;45.466;11.066;2023-05-21T00:34:33;20.20;99.90
23347;DHT22;36852;45.466;11.066;2023-05-21T00:37:00;20.20;99.90
23347;DHT22;36852;45.466;11.066;2023-05-21T00:39:29;20.30;99.90
23347;DHT22;36852;45.466;11.066;2023-05-21T00:41:56;20.30;99.90
23347;DHT22;36852;45.466;11.066;2023-05-21T00:44:24;20.30;99.90
23347;DHT22;36852;45.466;11.066;2023-05-21T00:46:53;20.40;99.90
23347;DHT22;36852;45.466;11.066;2023-05-21T00:49:21;20.40;99.90
23347;DHT22;36852;45.466;11.066;2023-05-21T00:51:50;20.30;99.90
23347;DHT22;36852;45.466;11.066;2023-05-21T00:54:19;20.40;99.90
23347;DHT22;36852;45.466;11.066;2023-05-21T00:56:48;20.30;99.90
23347;DHT22;36852;45.466;11.066;2023-05-21T00:59:16;20.40;99.90
23347;DHT22;36852;45.466;11.066;2023-05-21T01:01:44;20.40;99.90
23347;DHT22;36852;45.466;11.066;2023-05-21T01:04:12;20.40;99.90
23347;DHT22;36852;45.466;11.066;2023-05-21T01:06:39;20.40;99.90
23347;DHT22;36852;45.466;11.066;2023-05-21T01:09:09;20.50;99.90
23347;DHT22;36852;45.466;11.066;2023-05-21T01:11:42;20.40;99.90
23347;DHT22;36852;45.466;11.066;2023-05-21T01:14:12;20.50;99.90
23347;DHT22;36852;45.466;11.066;2023-05-21T01:16:43;20.50;99.90
23347;DHT22;36852;45.466;11.066;2023-05-21T01:19:18;20.40;99.90
23347;DHT22;36852;45.466;11.066;2023-05-21T01:21:52;20.40;99.90
23347;DHT22;36852;45.466;11.066;2023-05-21T01:24:22;20.40;99.90
23347;DHT22;36852;45.466;11.066;2023-05-21T01:26:50;20.30;99.90
23347;DHT22;36852;45.466;11.066;2023-05-21T01:29:18;20.30;99.90
23347;DHT22;36852;45.466;11.066;2023-05-21T01:34:55;20.20;99.90
23347;DHT22;36852;45.466;11.066;2023-05-21T01:39:59;20.10;99.90
23347;DHT22;36852;45.466;11.066;2023-05-21T01:42:28;20.00;99.90
23347;DHT22;36852;45.466;11.066;2023-05-21T01:44:58;19.90;99.90
23347;DHT22;36852;45.466;11.066;2023-05-21T01:47:28;19.90;99.90
23347;DHT22;36852;45.466;11.066;2023-05-21T01:49:58;19.90;99.90
23347;DHT22;36852;45.466;11.066;2023-05-21T01:52:27;19.80;99.90
23347;DHT22;36852;45.466;11.066;2023-05-21T01:54:57;19.80;99.90
23347;DHT22;36852;45.466;11.066;2023-05-21T01:57:26;19.80;99.90
23347;DHT22;36852;45.466;11.066;2023-05-21T01:59:54;19.70;99.90
23347;DHT22;36852;45.466;11.066;2023-05-21T02:02:24;19.70;99.90
23347;DHT22;36852;45.466;11.066;2023-05-21T02:04:51;19.70;99.90
23347;DHT22;36852;45.466;11.066;2023-05-21T02:07:19;19.60;99.90
23347;DHT22;36852;45.466;11.066;2023-05-21T02:09:47;19.60;99.90
23347;DHT22;36852;45.466;11.066;2023-05-21T02:12:16;19.50;99.90
23347;DHT22;36852;45.466;11.066;2023-05-21T02:14:43;19.50;99.90
23347;DHT22;36852;45.466;11.066;2023-05-21T02:17:14;19.50;99.90
23347;DHT22;36852;45.466;11.066;2023-05-21T02:19:43;19.50;99.90
23347;DHT22;36852;45.466;11.066;2023-05-21T02:22:14;19.50;99.90
23347;DHT22;36852;45.466;11.066;2023-05-21T02:24:43;19.50;99.90
23347;DHT22;36852;45.466;11.066;2023-05-21T02:27:10;19.50;99.90
23347;DHT22;36852;45.466;11.066;2023-05-21T02:29:39;19.50;99.90
23347;DHT22;36852;45.466;11.066;2023-05-21T02:32:07;19.40;99.90
23347;DHT22;36852;45.466;11.066;2023-05-21T02:34:34;19.40;99.90
23347;DHT22;36852;45.466;11.066;2023-05-21T02:37:03;19.40;99.90
23347;DHT22;36852;45.466;11.066;2023-05-21T02:39:31;19.40;99.90
23347;DHT22;36852;45.466;11.066;2023-05-21T02:42:00;19.40;99.90
23347;DHT22;36852;45.466;11.066;2023-05-21T02:44:28;19.30;99.90
23347;DHT22;36852;45.466;11.066;2023-05-21T02:46:56;19.40;99.90
23347;DHT22;36852;45.466;11.066;2023-05-21T02:49:24;19.40;99.90
23347;DHT22;36852;45.466;11.066;2023-05-21T02:51:52;19.30;99.90
23347;DHT22;36852;45.466;11.066;2023-05-21T02:54:20;19.30;99.90
23347;DHT22;36852;45.466;11.066;2023-05-21T02:56:48;19.30;99.90
23347;DHT22;36852;45.466;11.066;2023-05-21T02:59:17;19.30;99.90
23347;DHT22;36852;45.466;11.066;2023-05-21T03:02:07;19.20;99.90
23347;DHT22;36852;45.466;11.066;2023-05-21T03:04:35;19.20;99.90
23347;DHT22;36852;45.466;11.066;2023-05-21T03:07:07;19.20;99.90
23347;DHT22;36852;45.466;11.066;2023-05-21T03:09:36;19.20;99.90
23347;DHT22;36852;45.466;11.066;2023-05-21T03:12:04;19.20;99.90
23347;DHT22;36852;45.466;11.066;2023-05-21T03:14:32;19.20;99.90
23347;DHT22;36852;45.466;11.066;2023-05-21T03:17:01;19.10;99.90
23347;DHT22;36852;45.466;11.066;2023-05-21T03:19:33;19.10;99.90
23347;DHT22;36852;45.466;11.066;2023-05-21T03:22:03;19.10;99.90
23347;DHT22;36852;45.466;11.066;2023-05-21T03:24:33;19.10;99.90
23347;DHT22;36852;45.466;11.066;2023-05-21T03:27:02;19.00;99.90
23347;DHT22;36852;45.466;11.066;2023-05-21T03:29:35;19.00;99.90
23347;DHT22;36852;45.466;11.066;2023-05-21T03:32:06;19.00;99.90
23347;DHT22;36852;45.466;11.066;2023-05-21T03:34:34;19.00;99.90
23347;DHT22;36852;45.466;11.066;2023-05-21T03:37:02;19.00;99.90
23347;DHT22;36852;45.466;11.066;2023-05-21T03:39:30;19.00;99.90
23347;DHT22;36852;45.466;11.066;2023-05-21T03:41:58;19.00;99.90
23347;DHT22;36852;45.466;11.066;2023-05-21T03:44:34;19.00;99.90
23347;DHT22;36852;45.466;11.066;2023-05-21T03:47:04;19.00;99.90
23347;DHT22;36852;45.466;11.066;2023-05-21T03:49:34;19.00;99.90
23347;DHT22;36852;45.466;11.066;2023-05-21T03:52:02;19.00;99.90
23347;DHT22;36852;45.466;11.066;2023-05-21T03:54:30;19.00;99.90
23347;DHT22;36852;45.466;11.066;2023-05-21T03:57:00;19.00;99.90
23347;DHT22;36852;45.466;11.066;2023-05-21T03:59:28;19.00;99.90
23347;DHT22;36852;45.466;11.066;2023-05-21T04:01:57;19.00;99.90
23347;DHT22;36852;45.466;11.066;2023-05-21T04:04:25;19.10;99.90
23347;DHT22;36852;45.466;11.066;2023-05-21T04:06:54;19.10;99.90
23347;DHT22;36852;45.466;11.066;2023-05-21T04:09:22;19.10;99.90
23347;DHT22;36852;45.466;11.066;2023-05-21T04:11:50;19.10;99.90
23347;DHT22;36852;45.466;11.066;2023-05-21T04:14:18;19.10;99.90
23347;DHT22;36852;45.466;11.066;2023-05-21T04:16:46;19.20;99.90
23347;DHT22;36852;45.466;11.066;2023-05-21T04:19:15;19.20;99.90
23347;DHT22;36852;45.466;11.066;2023-05-21T04:21:42;19.30;99.90
23347;DHT22;36852;45.466;11.066;2023-05-21T04:24:12;19.40;99.90
23347;DHT22;36852;45.466;11.066;2023-05-21T04:26:50;19.40;99.90
23347;DHT22;36852;45.466;11.066;2023-05-21T04:29:18;19.50;99.90
23347;DHT22;36852;45.466;11.066;2023-05-21T04:31:48;19.60;99.90
23347;DHT22;36852;45.466;11.066;2023-05-21T04:34:16;19.60;99.90
23347;DHT22;36852;45.466;11.066;2023-05-21T04:36:44;19.70;99.90
23347;DHT22;36852;45.466;11.066;2023-05-21T04:39:13;19.80;99.90
23347;DHT22;36852;45.466;11.066;2023-05-21T04:41:41;19.90;99.90
23347;DHT22;36852;45.466;11.066;2023-05-21T04:44:09;20.00;99.90
23347;DHT22;36852;45.466;11.066;2023-05-21T04:46:36;20.10;99.90
23347;DHT22;36852;45.466;11.066;2023-05-21T04:49:08;20.10;99.90
23347;DHT22;36852;45.466;11.066;2023-05-21T04:51:37;20.20;99.90
23347;DHT22;36852;45.466;11.066;2023-05-21T04:54:06;20.20;99.90
23347;DHT22;36852;45.466;11.066;2023-05-21T04:56:34;20.30;99.90
23347;DHT22;36852;45.466;11.066;2023-05-21T04:59:03;20.30;99.90
23347;DHT22;36852;45.466;11.066;2023-05-21T05:01:33;20.30;99.90
23347;DHT22;36852;45.466;11.066;2023-05-21T05:04:01;20.30;99.90
23347;DHT22;36852;45.466;11.066;2023-05-21T05:06:29;20.40;99.90
23347;DHT22;36852;45.466;11.066;2023-05-21T05:09:00;20.40;99.90
23347;DHT22;36852;45.466;11.066;2023-05-21T05:11:28;20.40;99.90
23347;DHT22;36852;45.466;11.066;2023-05-21T05:13:56;20.40;99.90
23347;DHT22;36852;45.466;11.066;2023-05-21T05:16:23;20.50;99.90
23347;DHT22;36852;45.466;11.066;2023-05-21T05:18:52;20.50;99.90
23347;DHT22;36852;45.466;11.066;2023-05-21T05:21:21;20.60;99.90
23347;DHT22;36852;45.466;11.066;2023-05-21T05:23:51;20.60;99.90
23347;DHT22;36852;45.466;11.066;2023-05-21T05:26:21;20.60;99.90
23347;DHT22;36852;45.466;11.066;2023-05-21T05:28:49;20.60;99.90
23347;DHT22;36852;45.466;11.066;2023-05-21T05:31:17;20.70;99.90
23347;DHT22;36852;45.466;11.066;2023-05-21T05:33:45;20.70;99.90
23347;DHT22;36852;45.466;11.066;2023-05-21T05:36:14;20.70;99.90
23347;DHT22;36852;45.466;11.066;2023-05-21T05:38:41;20.70;99.90
23347;DHT22;36852;45.466;11.066;2023-05-21T05:41:12;20.70;99.90
23347;DHT22;36852;45.466;11.066;2023-05-21T05:43:40;20.70;99.90
23347;DHT22;36852;45.466;11.066;2023-05-21T05:46:08;20.70;99.90
23347;DHT22;36852;45.466;11.066;2023-05-21T05:48:36;20.70;99.90
23347;DHT22;36852;45.466;11.066;2023-05-21T05:51:04;20.70;99.90
23347;DHT22;36852;45.466;11.066;2023-05-21T05:53:31;20.60;99.90
23347;DHT22;36852;45.466;11.066;2023-05-21T05:55:59;20.60;99.90
23347;DHT22;36852;45.466;11.066;2023-05-21T05:58:28;20.50;99.90
23347;DHT22;36852;45.466;11.066;2023-05-21T06:00:59;20.50;99.90
23347;DHT22;36852;45.466;11.066;2023-05-21T06:03:27;20.50;99.90
23347;DHT22;36852;45.466;11.066;2023-05-21T06:05:56;20.50;99.90
23347;DHT22;36852;45.466;11.066;2023-05-21T06:08:27;20.60;99.90
23347;DHT22;36852;45.466;11.066;2023-05-21T06:10:55;20.50;99.90
23347;DHT22;36852;45.466;11.066;2023-05-21T06:13:23;20.50;99.90
23347;DHT22;36852;45.466;11.066;2023-05-21T06:15:52;20.50;99.90
23347;DHT22;36852;45.466;11.066;2023-05-21T06:18:20;20.50;99.90
23347;DHT22;36852;45.466;11.066;2023-05-21T06:20:47;20.50;99.90
23347;DHT22;36852;45.466;11.066;2023-05-21T06:23:16;20.50;99.90
23347;DHT22;36852;45.466;11.066;2023-05-21T06:25:45;20.40;99.90
23347;DHT22;36852;45.466;11.066;2023-05-21T06:28:13;20.40;99.90
23347;DHT22;36852;45.466;11.066;2023-05-21T06:30:42;20.50;99.90
23347;DHT22;36852;45.466;11.066;2023-05-21T06:33:30;20.50;99.90
23347;DHT22;36852;45.466;11.066;2023-05-21T06:35:59;20.50;99.90
23347;DHT22;36852;45.466;11.066;2023-05-21T06:38:33;20.60;99.90
23347;DHT22;36852;45.466;11.066;2023-05-21T06:41:01;20.60;99.90
23347;DHT22;36852;45.466;11.066;2023-05-21T06:43:32;20.70;99.90
23347;DHT22;36852;45.466;11.066;2023-05-21T06:46:10;20.80;99.90
23347;DHT22;36852;45.466;11.066;2023-05-21T06:48:39;20.90;99.90
23347;DHT22;36852;45.466;11.066;2023-05-21T06:51:07;21.00;99.90
23347;DHT22;36852;45.466;11.066;2023-05-21T06:53:35;21.10;99.90
23347;DHT22;36852;45.466;11.066;2023-05-21T06:56:03;21.20;99.90
23347;DHT22;36852;45.466;11.066;2023-05-21T06:58:33;21.30;99.90
23347;DHT22;36852;45.466;11.066;2023-05-21T07:01:01;21.40;99.90
23347;DHT22;36852;45.466;11.066;2023-05-21T07:03:29;21.50;99.90
23347;DHT22;36852;45.466;11.066;2023-05-21T07:05:58;21.60;99.90
23347;DHT22;36852;45.466;11.066;2023-05-21T07:08:26;21.70;99.90
23347;DHT22;36852;45.466;11.066;2023-05-21T07:10:55;21.80;99.90
23347;DHT22;36852;45.466;11.066;2023-05-21T07:13:22;22.00;99.90
23347;DHT22;36852;45.466;11.066;2023-05-21T07:15:52;22.10;99.90
23347;DHT22;36852;45.466;11.066;2023-05-21T07:21:00;22.40;99.90
23347;DHT22;36852;45.466;11.066;2023-05-21T07:23:28;22.50;99.90
23347;DHT22;36852;45.466;11.066;2023-05-21T07:25:56;22.60;99.90
23347;DHT22;36852;45.466;11.066;2023-05-21T07:28:24;22.80;99.90
23347;DHT22;36852;45.466;11.066;2023-05-21T07:30:51;22.90;99.90
23347;DHT22;36852;45.466;11.066;2023-05-21T07:33:21;23.00;99.90
23347;DHT22;36852;45.466;11.066;2023-05-21T07:35:51;23.10;99.90
23347;DHT22;36852;45.466;11.066;2023-05-21T07:38:19;23.10;99.90
23347;DHT22;36852;45.466;11.066;2023-05-21T07:40:47;23.10;99.90
23347;DHT22;36852;45.466;11.066;2023-05-21T07:43:15;23.00;99.90
23347;DHT22;36852;45.466;11.066;2023-05-21T07:45:43;23.00;99.90
23347;DHT22;36852;45.466;11.066;2023-05-21T07:48:12;23.00;99.90
23347;DHT22;36852;45.466;11.066;2023-05-21T07:50:42;22.90;99.90
23347;DHT22;36852;45.466;11.066;2023-05-21T07:53:11;23.00;99.90
23347;DHT22;36852;45.466;11.066;2023-05-21T07:55:39;23.00;99.90
23347;DHT22;36852;45.466;11.066;2023-05-21T07:58:16;23.10;99.90
23347;DHT22;36852;45.466;11.066;2023-05-21T08:00:47;23.20;99.90
23347;DHT22;36852;45.466;11.066;2023-05-21T08:03:16;23.30;99.90
23347;DHT22;36852;45.466;11.066;2023-05-21T08:05:46;23.40;99.90
23347;DHT22;36852;45.466;11.066;2023-05-21T08:08:18;23.40;99.90
23347;DHT22;36852;45.466;11.066;2023-05-21T08:10:47;23.50;99.90
23347;DHT22;36852;45.466;11.066;2023-05-21T08:13:15;23.60;99.50
23347;DHT22;36852;45.466;11.066;2023-05-21T08:15:45;23.60;99.20
23347;DHT22;36852;45.466;11.066;2023-05-21T08:18:13;23.70;99.30
23347;DHT22;36852;45.466;11.066;2023-05-21T08:20:43;23.70;99.10
23347;DHT22;36852;45.466;11.066;2023-05-21T08:23:10;23.70;99.30
23347;DHT22;36852;45.466;11.066;2023-05-21T08:25:40;23.80;99.90
23347;DHT22;36852;45.466;11.066;2023-05-21T08:28:09;23.80;99.90
23347;DHT22;36852;45.466;11.066;2023-05-21T08:30:37;23.80;98.30
23347;DHT22;36852;45.466;11.066;2023-05-21T08:33:05;23.80;98.40
23347;DHT22;36852;45.466;11.066;2023-05-21T08:35:33;23.80;97.80
23347;DHT22;36852;45.466;11.066;2023-05-21T08:38:21;23.80;98.00
23347;DHT22;36852;45.466;11.066;2023-05-21T08:41:03;23.80;98.40
23347;DHT22;36852;45.466;11.066;2023-05-21T08:43:33;23.80;98.00
23347;DHT22;36852;45.466;11.066;2023-05-21T08:46:03;23.80;98.00
23347;DHT22;36852;45.466;11.066;2023-05-21T08:48:33;23.80;97.60
23347;DHT22;36852;45.466;11.066;2023-05-21T08:51:03;23.90;98.20
23347;DHT22;36852;45.466;11.066;2023-05-21T08:53:38;23.90;97.60
23347;DHT22;36852;45.466;11.066;2023-05-21T08:56:07;24.00;97.30
23347;DHT22;36852;45.466;11.066;2023-05-21T08:58:47;24.10;98.20
23347;DHT22;36852;45.466;11.066;2023-05-21T09:01:17;24.10;97.50
23347;DHT22;36852;45.466;11.066;2023-05-21T09:03:49;24.20;96.70
23347;DHT22;36852;45.466;11.066;2023-05-21T09:06:21;24.30;96.40
23347;DHT22;36852;45.466;11.066;2023-05-21T09:08:54;24.40;96.10
23347;DHT22;36852;45.466;11.066;2023-05-21T09:11:22;24.50;96.20
23347;DHT22;36852;45.466;11.066;2023-05-21T09:13:53;24.60;96.20
23347;DHT22;36852;45.466;11.066;2023-05-21T09:16:24;24.60;95.50
23347;DHT22;36852;45.466;11.066;2023-05-21T09:18:51;24.70;94.90
23347;DHT22;36852;45.466;11.066;2023-05-21T09:21:27;24.80;94.40
23347;DHT22;36852;45.466;11.066;2023-05-21T09:24:01;24.80;94.40
23347;DHT22;36852;45.466;11.066;2023-05-21T09:26:31;24.80;93.50
23347;DHT22;36852;45.466;11.066;2023-05-21T09:29:01;24.80;93.80
23347;DHT22;36852;45.466;11.066;2023-05-21T09:31:29;24.80;93.80
23347;DHT22;36852;45.466;11.066;2023-05-21T09:33:56;24.90;93.70
23347;DHT22;36852;45.466;11.066;2023-05-21T09:36:25;24.90;93.70
23347;DHT22;36852;45.466;11.066;2023-05-21T09:38:55;24.90;93.40
23347;DHT22;36852;45.466;11.066;2023-05-21T09:41:33;24.90;93.80
23347;DHT22;36852;45.466;11.066;2023-05-21T09:44:03;24.90;94.10
23347;DHT22;36852;45.466;11.066;2023-05-21T09:46:39;24.90;93.80
23347;DHT22;36852;45.466;11.066;2023-05-21T09:49:23;24.90;93.00
23347;DHT22;36852;45.466;11.066;2023-05-21T09:51:57;24.90;93.30
23347;DHT22;36852;45.466;11.066;2023-05-21T09:54:32;25.00;93.90
23347;DHT22;36852;45.466;11.066;2023-05-21T09:57:00;25.00;93.50
23347;DHT22;36852;45.466;11.066;2023-05-21T09:59:39;25.10;93.00
23347;DHT22;36852;45.466;11.066;2023-05-21T10:02:21;25.10;93.50
23347;DHT22;36852;45.466;11.066;2023-05-21T10:04:50;25.20;93.40
23347;DHT22;36852;45.466;11.066;2023-05-21T10:07:20;25.20;92.90
23347;DHT22;36852;45.466;11.066;2023-05-21T10:09:52;25.30;93.40
23347;DHT22;36852;45.466;11.066;2023-05-21T10:12:23;25.40;93.30
23347;DHT22;36852;45.466;11.066;2023-05-21T10:15:04;25.40;92.60
23347;DHT22;36852;45.466;11.066;2023-05-21T10:17:26;25.40;93.70
23347;DHT22;36852;45.466;11.066;2023-05-21T10:19:58;25.50;92.60
23347;DHT22;36852;45.466;11.066;2023-05-21T10:22:27;25.50;93.10
23347;DHT22;36852;45.466;11.066;2023-05-21T10:24:56;25.50;93.40
23347;DHT22;36852;45.466;11.066;2023-05-21T10:27:24;25.60;93.80
23347;DHT22;36852;45.466;11.066;2023-05-21T10:29:56;25.60;93.90
23347;DHT22;36852;45.466;11.066;2023-05-21T10:32:26;25.70;94.10
23347;DHT22;36852;45.466;11.066;2023-05-21T10:34:54;25.70;93.30
23347;DHT22;36852;45.466;11.066;2023-05-21T10:37:26;25.80;92.60
23347;DHT22;36852;45.466;11.066;2023-05-21T10:39:57;25.80;92.60
23347;DHT22;36852;45.466;11.066;2023-05-21T10:51:52;26.00;92.20
23347;DHT22;36852;45.466;11.066;2023-05-21T10:59:47;26.00;91.70
23347;DHT22;36852;45.466;11.066;2023-05-21T11:02:18;26.00;91.10
23347;DHT22;36852;45.466;11.066;2023-05-21T11:04:46;26.10;90.60
23347;DHT22;36852;45.466;11.066;2023-05-21T11:07:21;26.10;85.70
23347;DHT22;36852;45.466;11.066;2023-05-21T11:09:49;26.10;86.00
23347;DHT22;36852;45.466;11.066;2023-05-21T11:12:16;26.10;84.60
23347;DHT22;36852;45.466;11.066;2023-05-21T11:14:56;26.10;84.00
23347;DHT22;36852;45.466;11.066;2023-05-21T11:17:40;26.20;83.70
23347;DHT22;36852;45.466;11.066;2023-05-21T11:20:11;26.20;86.70
23347;DHT22;36852;45.466;11.066;2023-05-21T11:22:44;26.30;84.80
23347;DHT22;36852;45.466;11.066;2023-05-21T11:25:13;26.30;85.20
23347;DHT22;36852;45.466;11.066;2023-05-21T11:27:41;26.30;84.50
23347;DHT22;36852;45.466;11.066;2023-05-21T11:30:14;26.30;85.00
23347;DHT22;36852;45.466;11.066;2023-05-21T11:38:16;26.40;86.00
23347;DHT22;36852;45.466;11.066;2023-05-21T11:40:51;26.40;86.30
23347;DHT22;36852;45.466;11.066;2023-05-21T11:43:22;26.40;85.20
23347;DHT22;36852;45.466;11.066;2023-05-21T11:45:51;26.40;80.40
23347;DHT22;36852;45.466;11.066;2023-05-21T11:48:24;26.40;82.60
23347;DHT22;36852;45.466;11.066;2023-05-21T11:50:54;26.40;83.40
23347;DHT22;36852;45.466;11.066;2023-05-21T11:53:23;26.50;84.80
23347;DHT22;36852;45.466;11.066;2023-05-21T11:55:51;26.50;85.60
23347;DHT22;36852;45.466;11.066;2023-05-21T11:58:22;26.50;84.10
23347;DHT22;36852;45.466;11.066;2023-05-21T12:00:50;26.60;83.40
23347;DHT22;36852;45.466;11.066;2023-05-21T12:03:18;26.60;82.80
23347;DHT22;36852;45.466;11.066;2023-05-21T12:05:47;26.70;83.70
23347;DHT22;36852;45.466;11.066;2023-05-21T12:08:22;26.70;82.40
23347;DHT22;36852;45.466;11.066;2023-05-21T12:10:57;26.70;81.00
23347;DHT22;36852;45.466;11.066;2023-05-21T12:13:25;26.80;81.10
23347;DHT22;36852;45.466;11.066;2023-05-21T12:15:53;26.80;78.90
23347;DHT22;36852;45.466;11.066;2023-05-21T12:18:24;26.80;78.70
23347;DHT22;36852;45.466;11.066;2023-05-21T12:23:36;27.00;80.80
23347;DHT22;36852;45.466;11.066;2023-05-21T12:26:04;27.00;81.10
23347;DHT22;36852;45.466;11.066;2023-05-21T12:28:32;27.00;79.40
23347;DHT22;36852;45.466;11.066;2023-05-21T12:31:00;27.10;80.40
23347;DHT22;36852;45.466;11.066;2023-05-21T12:33:34;27.10;81.20
23347;DHT22;36852;45.466;11.066;2023-05-21T12:36:02;27.10;80.60
23347;DHT22;36852;45.466;11.066;2023-05-21T12:38:30;27.20;82.80
23347;DHT22;36852;45.466;11.066;2023-05-21T12:41:03;27.20;82.10
23347;DHT22;36852;45.466;11.066;2023-05-21T12:43:31;27.30;82.70
23347;DHT22;36852;45.466;11.066;2023-05-21T12:46:00;27.30;81.20
23347;DHT22;36852;45.466;11.066;2023-05-21T12:48:28;27.40;82.60
23347;DHT22;36852;45.466;11.066;2023-05-21T12:50:58;27.50;80.00
23347;DHT22;36852;45.466;11.066;2023-05-21T12:53:37;27.50;79.70
23347;DHT22;36852;45.466;11.066;2023-05-21T12:56:13;27.60;82.50
23347;DHT22;36852;45.466;11.066;2023-05-21T12:58:42;27.70;78.40
23347;DHT22;36852;45.466;11.066;2023-05-21T13:01:10;27.80;78.60
23347;DHT22;36852;45.466;11.066;2023-05-21T13:03:40;27.90;76.40
23347;DHT22;36852;45.466;11.066;2023-05-21T13:06:08;27.90;79.20
23347;DHT22;36852;45.466;11.066;2023-05-21T13:08:36;28.10;80.60
23347;DHT22;36852;45.466;11.066;2023-05-21T13:11:05;28.20;81.90
23347;DHT22;36852;45.466;11.066;2023-05-21T13:13:33;28.30;79.10
23347;DHT22;36852;45.466;11.066;2023-05-21T13:16:00;28.40;82.00
23347;DHT22;36852;45.466;11.066;2023-05-21T13:18:28;28.50;80.40
23347;DHT22;36852;45.466;11.066;2023-05-21T13:20:57;28.50;77.10
23347;DHT22;36852;45.466;11.066;2023-05-21T13:23:25;28.50;76.40
23347;DHT22;36852;45.466;11.066;2023-05-21T13:25:53;28.50;78.00
23347;DHT22;36852;45.466;11.066;2023-05-21T13:28:21;28.50;80.50
23347;DHT22;36852;45.466;11.066;2023-05-21T13:30:51;28.60;79.80
23347;DHT22;36852;45.466;11.066;2023-05-21T13:33:20;28.60;77.70
23347;DHT22;36852;45.466;11.066;2023-05-21T13:35:48;28.60;74.60
23347;DHT22;36852;45.466;11.066;2023-05-21T13:38:18;28.60;76.20
23347;DHT22;36852;45.466;11.066;2023-05-21T13:40:46;28.70;73.90
23347;DHT22;36852;45.466;11.066;2023-05-21T13:43:14;28.60;73.30
23347;DHT22;36852;45.466;11.066;2023-05-21T13:45:43;28.80;77.00
23347;DHT22;36852;45.466;11.066;2023-05-21T13:48:15;28.90;71.60
23347;DHT22;36852;45.466;11.066;2023-05-21T13:50:43;28.90;69.60
23347;DHT22;36852;45.466;11.066;2023-05-21T13:53:12;28.80;70.30
23347;DHT22;36852;45.466;11.066;2023-05-21T13:55:40;28.70;71.70
23347;DHT22;36852;45.466;11.066;2023-05-21T13:58:08;28.80;75.50
23347;DHT22;36852;45.466;11.066;2023-05-21T14:00:36;28.90;72.60
23347;DHT22;36852;45.466;11.066;2023-05-21T14:03:05;29.10;72.20
23347;DHT22;36852;45.466;11.066;2023-05-21T14:05:34;29.30;71.50
23347;DHT22;36852;45.466;11.066;2023-05-21T14:08:05;29.50;70.60
23347;DHT22;36852;45.466;11.066;2023-05-21T14:10:32;29.90;71.80
23347;DHT22;36852;45.466;11.066;2023-05-21T14:13:00;30.20;71.80
23347;DHT22;36852;45.466;11.066;2023-05-21T14:15:30;30.40;67.10
23347;DHT22;36852;45.466;11.066;2023-05-21T14:18:00;30.60;67.00
23347;DHT22;36852;45.466;11.066;2023-05-21T14:20:28;30.90;65.10
23347;DHT22;36852;45.466;11.066;2023-05-21T14:22:56;31.10;66.40
23347;DHT22;36852;45.466;11.066;2023-05-21T14:25:24;31.20;61.70
23347;DHT22;36852;45.466;11.066;2023-05-21T14:27:52;31.30;61.80
23347;DHT22;36852;45.466;11.066;2023-05-21T14:30:21;31.50;62.00
23347;DHT22;36852;45.466;11.066;2023-05-21T14:32:49;31.60;60.30
23347;DHT22;36852;45.466;11.066;2023-05-21T14:35:17;31.70;60.70
23347;DHT22;36852;45.466;11.066;2023-05-21T14:37:45;31.90;61.10
23347;DHT22;36852;45.466;11.066;2023-05-21T14:40:13;32.00;60.10
23347;DHT22;36852;45.466;11.066;2023-05-21T14:42:41;32.20;59.70
23347;DHT22;36852;45.466;11.066;2023-05-21T14:45:10;32.40;60.00
23347;DHT22;36852;45.466;11.066;2023-05-21T14:47:40;32.60;58.30
23347;DHT22;36852;45.466;11.066;2023-05-21T14:50:09;32.80;57.30
23347;DHT22;36852;45.466;11.066;2023-05-21T14:52:37;32.80;54.60
23347;DHT22;36852;45.466;11.066;2023-05-21T14:55:05;32.90;57.00
23347;DHT22;36852;45.466;11.066;2023-05-21T14:57:37;33.10;58.10
23347;DHT22;36852;45.466;11.066;2023-05-21T15:00:06;33.30;55.90
23347;DHT22;36852;45.466;11.066;2023-05-21T15:02:34;33.40;53.80
23347;DHT22;36852;45.466;11.066;2023-05-21T15:05:02;33.30;55.20
23347;DHT22;36852;45.466;11.066;2023-05-21T15:07:30;33.30;53.90
23347;DHT22;36852;45.466;11.066;2023-05-21T15:09:58;33.30;54.90
23347;DHT22;36852;45.466;11.066;2023-05-21T15:12:27;33.40;55.80
23347;DHT22;36852;45.466;11.066;2023-05-21T15:14:55;33.20;53.00
23347;DHT22;36852;45.466;11.066;2023-05-21T15:17:23;33.00;52.50
23347;DHT22;36852;45.466;11.066;2023-05-21T15:19:51;32.70;52.70
23347;DHT22;36852;45.466;11.066;2023-05-21T15:22:18;32.40;53.50
23347;DHT22;36852;45.466;11.066;2023-05-21T15:24:46;32.10;53.80
23347;DHT22;36852;45.466;11.066;2023-05-21T15:27:14;32.00;55.50
23347;DHT22;36852;45.466;11.066;2023-05-21T15:29:42;32.10;55.80
23347;DHT22;36852;45.466;11.066;2023-05-21T15:32:12;32.20;55.20
23347;DHT22;36852;45.466;11.066;2023-05-21T15:34:40;32.30;55.70
23347;DHT22;36852;45.466;11.066;2023-05-21T15:37:08;32.30;55.60
23347;DHT22;36852;45.466;11.066;2023-05-21T15:39:40;32.40;55.20
23347;DHT22;36852;45.466;11.066;2023-05-21T15:42:08;32.50;55.00
23347;DHT22;36852;45.466;11.066;2023-05-21T15:44:38;32.40;54.10
23347;DHT22;36852;45.466;11.066;2023-05-21T15:47:07;32.40;54.00
23347;DHT22;36852;45.466;11.066;2023-05-21T15:49:34;32.20;53.70
23347;DHT22;36852;45.466;11.066;2023-05-21T15:52:02;32.10;53.20
23347;DHT22;36852;45.466;11.066;2023-05-21T15:54:30;32.10;54.20
23347;DHT22;36852;45.466;11.066;2023-05-21T15:56:57;32.20;54.20
23347;DHT22;36852;45.466;11.066;2023-05-21T15:59:25;32.30;54.60
23347;DHT22;36852;45.466;11.066;2023-05-21T16:01:55;32.30;55.70